Time;durP1;ratioP1;P1;durP2;ratioP2;P2;SDS_P1;SDS_P2;PMS_P1;PMS_P2;Temp;Humidity;BMP_temperature;BMP_pressure;BME280_temperature;BME280_humidity;BME280_pressure;Samples;Min_cycle;Max_cycle;Signal;HPM_P1;HPM_P2
2023/04/07 00:01:00;;;;;;;7.50;4.60;;;0.20;99.90;;;;;;5103846;28;20462;-77
2023/04/07 00:03:27;;;;;;;5.27;3.43;;;0.10;99.90;;;;;;5106096;28;20854;-77
2023/04/07 00:05:55;;;;;;;5.27;4.67;;;0.00;99.90;;;;;;5103843;28;20920;-75
2023/04/07 00:08:22;;;;;;;3.93;3.60;;;-0.10;99.90;;;;;;5104959;28;20451;-77
2023/04/07 00:10:49;;;;;;;6.78;4.57;;;-0.20;99.90;;;;;;5094594;28;20515;-76
2023/04/07 00:13:16;;;;;;;4.77;4.27;;;-0.20;99.90;;;;;;5103616;28;20285;-76
2023/04/07 00:15:43;;;;;;;4.18;3.85;;;-0.30;99.90;;;;;;5102310;28;20449;-75
2023/04/07 00:18:10;;;;;;;6.03;4.10;;;-0.40;99.90;;;;;;5099461;28;20201;-76
2023/04/07 00:20:37;;;;;;;6.37;4.97;;;-0.50;99.90;;;;;;5103180;28;20205;-77
2023/04/07 00:23:06;;;;;;;5.67;4.13;;;-0.60;99.90;;;;;;5105574;28;20508;-76
2023/04/07 00:25:33;;;;;;;8.80;6.17;;;-0.60;99.90;;;;;;5101894;28;20856;-75
2023/04/07 00:28:00;;;;;;;7.18;5.63;;;-0.70;99.90;;;;;;5101024;28;20479;-76
2023/04/07 00:30:27;;;;;;;7.55;4.50;;;-0.70;99.90;;;;;;5099324;28;20254;-76
2023/04/07 00:32:54;;;;;;;5.20;4.30;;;-0.80;99.90;;;;;;5104998;28;20234;-74
2023/04/07 00:35:21;;;;;;;6.60;4.03;;;-0.70;99.90;;;;;;5104926;28;21067;-76
2023/04/07 00:37:47;;;;;;;6.77;4.20;;;-0.50;99.90;;;;;;5099241;28;20807;-76
2023/04/07 00:40:17;;;;;;;5.20;3.40;;;-0.30;99.90;;;;;;5096176;28;21029;-77
2023/04/07 00:42:44;;;;;;;6.85;4.68;;;-0.50;99.90;;;;;;5104552;28;20615;-75
2023/04/07 00:45:11;;;;;;;8.23;5.00;;;-0.50;99.90;;;;;;5096949;28;20205;-75
2023/04/07 00:47:39;;;;;;;6.18;4.28;;;-0.50;99.90;;;;;;5105486;28;20253;-76
2023/04/07 00:50:07;;;;;;;4.30;3.83;;;-0.40;99.90;;;;;;5105344;28;20265;-75
2023/04/07 00:52:34;;;;;;;5.82;3.95;;;-0.30;99.90;;;;;;5105429;28;20610;-75
2023/04/07 00:55:01;;;;;;;6.88;4.65;;;-0.20;99.90;;;;;;5100213;28;20200;-74
2023/04/07 00:57:29;;;;;;;5.97;4.30;;;-0.30;99.90;;;;;;5105892;28;20734;-75
2023/04/07 00:59:56;;;;;;;6.32;3.67;;;-0.20;99.90;;;;;;5105395;28;20200;-76
2023/04/07 01:02:32;;;;;;;4.80;3.97;;;-0.20;99.90;;;;;;5096040;28;20205;-74
2023/04/07 01:05:07;;;;;;;6.55;4.60;;;-0.30;99.90;;;;;;5100957;28;20200;-75
2023/04/07 01:07:38;;;;;;;7.85;3.95;;;-0.30;99.90;;;;;;5107933;28;20202;-75
2023/04/07 01:10:08;;;;;;;4.90;4.50;;;-0.40;99.90;;;;;;5093519;28;20221;-74
2023/04/07 01:12:54;;;;;;;5.93;4.63;;;-0.40;99.90;;;;;;5099963;28;20235;-75
2023/04/07 01:15:26;;;;;;;5.03;4.50;;;-0.40;99.90;;;;;;5100737;28;20193;-76
2023/04/07 01:17:59;;;;;;;5.70;4.50;;;-0.40;99.90;;;;;;5108829;28;20232;-75
2023/04/07 01:20:29;;;;;;;5.45;4.90;;;-0.50;99.90;;;;;;5104917;28;20197;-75
2023/04/07 01:23:00;;;;;;;4.97;4.10;;;-0.60;99.90;;;;;;5104861;28;20258;-76
2023/04/07 01:26:02;;;;;;;6.03;4.43;;;-0.60;99.90;;;;;;5099724;28;20258;-77
2023/04/07 01:28:44;;;;;;;5.72;4.07;;;-0.70;99.90;;;;;;5033916;28;20235;-77
2023/04/07 01:31:14;;;;;;;5.95;4.80;;;-0.70;99.90;;;;;;5100392;28;20217;-75
2023/04/07 01:33:45;;;;;;;5.90;5.35;;;-0.70;99.90;;;;;;5102525;28;20289;-74
2023/04/07 01:36:13;;;;;;;6.20;4.40;;;-0.70;99.90;;;;;;5106574;28;20196;-74
2023/04/07 01:38:40;;;;;;;7.93;4.90;;;-0.70;99.90;;;;;;5105308;28;20265;-74
2023/04/07 01:41:09;;;;;;;4.38;3.47;;;-0.80;99.90;;;;;;5108884;28;20472;-75
2023/04/07 01:43:39;;;;;;;6.07;5.40;;;-0.90;99.90;;;;;;5097890;28;20201;-75
2023/04/07 01:46:06;;;;;;;6.07;4.63;;;-0.90;99.90;;;;;;5111543;28;20279;-75
2023/04/07 01:48:35;;;;;;;5.55;3.60;;;-1.00;99.90;;;;;;5120844;28;20253;-74
2023/04/07 01:51:04;;;;;;;4.43;4.03;;;-1.00;99.90;;;;;;5112118;28;20212;-75
2023/04/07 01:53:32;;;;;;;4.10;3.75;;;-1.10;99.90;;;;;;5107047;28;20728;-75
2023/04/07 01:55:59;;;;;;;5.43;4.55;;;-1.10;99.90;;;;;;5099080;28;20196;-75
2023/04/07 01:58:26;;;;;;;8.75;4.93;;;-1.10;99.90;;;;;;5103795;28;20726;-74
2023/04/07 02:00:53;;;;;;;7.95;4.25;;;-1.00;99.90;;;;;;5105310;28;20267;-75
2023/04/07 02:03:23;;;;;;;4.45;3.95;;;-0.90;99.90;;;;;;5107790;28;20204;-74
2023/04/07 02:05:56;;;;;;;7.05;3.95;;;-0.80;99.90;;;;;;5106495;28;20236;-75
2023/04/07 02:08:27;;;;;;;4.80;3.72;;;-0.80;99.90;;;;;;5106561;28;20197;-75
2023/04/07 02:10:56;;;;;;;3.20;3.00;;;-0.70;99.90;;;;;;5106291;28;20235;-77
2023/04/07 02:13:24;;;;;;;5.35;4.85;;;-0.80;99.90;;;;;;5107123;28;20201;-76
2023/04/07 02:15:53;;;;;;;5.18;4.65;;;-0.90;99.90;;;;;;5105618;28;20261;-74
2023/04/07 02:18:21;;;;;;;5.07;4.65;;;-0.90;99.90;;;;;;5106050;28;20618;-76
2023/04/07 02:20:50;;;;;;;5.20;4.80;;;-0.80;99.90;;;;;;5107975;28;20200;-76
2023/04/07 02:23:18;;;;;;;8.05;4.45;;;-0.80;99.90;;;;;;5095679;28;20246;-76
2023/04/07 02:25:45;;;;;;;6.28;4.47;;;-0.80;99.90;;;;;;5107493;28;20249;-75
2023/04/07 02:28:12;;;;;;;5.50;4.05;;;-0.80;99.90;;;;;;5104481;28;20231;-75
2023/04/07 02:30:40;;;;;;;6.35;4.95;;;-0.90;99.90;;;;;;5101002;28;20228;-75
2023/04/07 02:33:07;;;;;;;5.40;4.90;;;-1.00;99.90;;;;;;5102890;28;20196;-76
2023/04/07 02:35:34;;;;;;;6.80;4.95;;;-0.80;99.90;;;;;;5106865;28;20197;-76
2023/04/07 02:38:01;;;;;;;5.15;4.13;;;-0.80;99.90;;;;;;5103679;28;20188;-75
2023/04/07 02:40:32;;;;;;;5.25;4.82;;;-0.90;99.90;;;;;;5094210;28;20250;-77
2023/04/07 02:42:59;;;;;;;6.00;5.40;;;-0.90;99.90;;;;;;5101836;28;20255;-74
2023/04/07 02:45:26;;;;;;;5.35;4.78;;;-0.90;99.90;;;;;;5106715;28;20446;-75
2023/04/07 02:47:54;;;;;;;8.20;5.18;;;-0.90;99.90;;;;;;5100978;28;20688;-77
2023/04/07 02:50:21;;;;;;;6.25;4.45;;;-0.80;99.90;;;;;;5102807;28;20665;-75
2023/04/07 02:52:48;;;;;;;4.18;3.78;;;-0.80;99.90;;;;;;5101963;28;20200;-75
2023/04/07 02:55:17;;;;;;;5.68;4.60;;;-0.80;99.90;;;;;;5104207;28;20723;-75
2023/04/07 02:57:45;;;;;;;5.82;4.72;;;-0.80;99.90;;;;;;5106349;28;20219;-75
2023/04/07 03:00:13;;;;;;;8.90;5.30;;;-0.70;99.90;;;;;;5105969;28;20209;-75
2023/04/07 03:02:40;;;;;;;5.75;3.53;;;-0.70;99.90;;;;;;5102828;28;20615;-74
2023/04/07 03:05:08;;;;;;;6.30;4.57;;;-0.70;99.90;;;;;;5100379;28;20205;-77
2023/04/07 03:07:34;;;;;;;4.40;4.00;;;-0.80;99.90;;;;;;5097411;28;20193;-77
2023/04/07 03:10:01;;;;;;;5.53;4.90;;;-0.90;99.90;;;;;;5106143;28;20693;-76
2023/04/07 03:12:28;;;;;;;7.70;5.30;;;-0.80;99.90;;;;;;5101713;28;20224;-75
2023/04/07 03:14:57;;;;;;;12.90;4.63;;;-0.90;99.90;;;;;;5107215;28;20223;-76
2023/04/07 03:17:24;;;;;;;5.70;5.00;;;-1.00;99.90;;;;;;5104031;28;20342;-75
2023/04/07 03:19:51;;;;;;;5.55;3.95;;;-1.20;99.90;;;;;;5104448;28;20208;-75
2023/04/07 03:22:18;;;;;;;6.68;4.25;;;-1.20;99.90;;;;;;5103166;28;20207;-76
2023/04/07 03:24:46;;;;;;;7.38;5.53;;;-1.20;99.90;;;;;;5098935;28;20195;-76
2023/04/07 03:27:13;;;;;;;5.95;4.00;;;-1.10;99.90;;;;;;5098274;28;20883;-75
2023/04/07 03:29:40;;;;;;;8.10;4.82;;;-1.00;99.90;;;;;;5097231;28;20213;-76
2023/04/07 03:32:08;;;;;;;4.97;3.67;;;-1.00;99.90;;;;;;5101609;28;20225;-77
2023/04/07 03:34:35;;;;;;;7.57;5.47;;;-1.00;99.90;;;;;;5107244;28;20208;-77
2023/04/07 03:37:02;;;;;;;4.78;4.40;;;-1.00;99.90;;;;;;5110044;28;20223;-75
2023/04/07 03:39:29;;;;;;;7.00;4.80;;;-1.10;99.90;;;;;;5110872;28;20242;-75
2023/04/07 03:41:58;;;;;;;7.07;4.18;;;-1.20;99.90;;;;;;5114751;28;20619;-77
2023/04/07 03:44:25;;;;;;;6.82;4.53;;;-1.20;99.90;;;;;;5101517;28;20964;-74
2023/04/07 03:46:52;;;;;;;6.30;4.88;;;-1.20;99.90;;;;;;5105296;28;20249;-75
2023/04/07 03:49:21;;;;;;;5.75;4.63;;;-1.20;99.90;;;;;;5107184;27;20240;-76
2023/04/07 03:51:48;;;;;;;4.85;4.43;;;-1.20;99.90;;;;;;5099689;27;20224;-76
2023/04/07 03:54:14;;;;;;;5.55;5.15;;;-1.10;99.90;;;;;;5105788;28;20253;-78
2023/04/07 03:56:42;;;;;;;7.57;4.47;;;-1.10;99.90;;;;;;5099900;28;20204;-75
2023/04/07 03:59:09;;;;;;;8.52;4.50;;;-1.10;99.90;;;;;;5101856;28;20231;-75
2023/04/07 04:01:36;;;;;;;5.82;5.40;;;-1.10;99.90;;;;;;5103357;28;20222;-76
2023/04/07 04:04:03;;;;;;;5.82;3.85;;;-1.10;99.90;;;;;;5103536;28;20818;-75
2023/04/07 04:06:31;;;;;;;6.72;5.82;;;-1.10;99.90;;;;;;5104224;28;20250;-77
2023/04/07 04:08:58;;;;;;;5.00;4.45;;;-1.00;99.90;;;;;;5106802;28;20197;-75
2023/04/07 04:11:26;;;;;;;6.22;4.78;;;-1.10;99.90;;;;;;5105985;28;20220;-76
2023/04/07 04:13:53;;;;;;;4.32;3.90;;;-1.10;99.90;;;;;;5100725;28;20254;-76
2023/04/07 04:16:20;;;;;;;7.43;5.82;;;-1.10;99.90;;;;;;5095565;28;20242;-77
2023/04/07 04:18:46;;;;;;;8.77;4.40;;;-1.20;99.90;;;;;;5103323;28;20201;-76
2023/04/07 04:21:13;;;;;;;7.93;5.25;;;-1.30;99.90;;;;;;5100351;28;20197;-75
2023/04/07 04:23:42;;;;;;;7.47;4.20;;;-1.30;99.90;;;;;;5105776;28;20205;-77
2023/04/07 04:26:09;;;;;;;8.85;4.85;;;-1.40;99.90;;;;;;5097601;28;20202;-75
2023/04/07 04:28:36;;;;;;;6.07;4.85;;;-1.30;99.90;;;;;;5105459;28;20236;-75
2023/04/07 04:31:03;;;;;;;6.57;4.70;;;-1.30;99.90;;;;;;5103770;28;20193;-75
2023/04/07 04:33:30;;;;;;;5.95;4.13;;;-1.30;99.90;;;;;;5102900;28;20234;-76
2023/04/07 04:35:57;;;;;;;6.65;5.10;;;-1.30;99.90;;;;;;5096083;28;20195;-75
2023/04/07 04:38:24;;;;;;;4.80;4.35;;;-1.30;99.90;;;;;;5103321;28;20257;-75
2023/04/07 04:40:52;;;;;;;6.25;4.78;;;-1.30;99.90;;;;;;5101253;28;20205;-75
2023/04/07 04:43:19;;;;;;;6.25;4.65;;;-1.20;99.90;;;;;;5103112;28;20254;-74
2023/04/07 04:45:47;;;;;;;7.32;4.55;;;-1.10;99.90;;;;;;5098224;28;20403;-75
2023/04/07 04:48:15;;;;;;;8.67;4.83;;;-1.10;99.90;;;;;;5096451;28;20205;-76
2023/04/07 04:50:43;;;;;;;6.67;4.90;;;-1.20;99.90;;;;;;5096300;28;20960;-77
2023/04/07 04:53:10;;;;;;;6.40;5.10;;;-1.20;99.90;;;;;;5099519;28;20479;-75
2023/04/07 04:55:39;;;;;;;9.27;5.80;;;-1.10;99.90;;;;;;5101502;28;20201;-75
2023/04/07 04:58:07;;;;;;;7.45;6.10;;;-1.10;99.90;;;;;;5099402;28;20312;-76
2023/04/07 05:00:34;;;;;;;6.20;5.60;;;-0.90;99.90;;;;;;5091521;28;20205;-75
2023/04/07 05:03:02;;;;;;;10.32;4.88;;;-0.90;99.90;;;;;;5094612;28;20439;-78
2023/04/07 05:05:29;;;;;;;7.43;5.88;;;-0.80;99.90;;;;;;5103026;28;20205;-76
2023/04/07 05:07:56;;;;;;;5.57;4.63;;;-0.80;99.90;;;;;;5102590;28;20249;-79
2023/04/07 05:10:23;;;;;;;5.15;4.65;;;-0.80;99.90;;;;;;5102297;28;20201;-76
2023/04/07 05:12:50;;;;;;;7.63;5.17;;;-0.80;99.90;;;;;;5104547;28;20251;-79
2023/04/07 05:15:18;;;;;;;7.15;6.40;;;-0.80;99.90;;;;;;5103464;28;20503;-78
2023/04/07 05:17:49;;;;;;;5.33;4.50;;;-0.80;99.90;;;;;;5100819;28;20245;-77
2023/04/07 05:20:16;;;;;;;5.83;5.23;;;-0.70;99.90;;;;;;5105502;28;20503;-75
2023/04/07 05:22:43;;;;;;;4.07;3.33;;;-0.50;99.90;;;;;;5094596;28;20471;-76
2023/04/07 05:25:10;;;;;;;5.10;4.60;;;-0.40;99.90;;;;;;5103678;28;20982;-75
2023/04/07 05:27:37;;;;;;;5.97;5.38;;;-0.40;99.90;;;;;;5100802;28;20311;-75
2023/04/07 05:30:05;;;;;;;6.60;5.20;;;-0.30;99.90;;;;;;5103561;28;20197;-76
2023/04/07 05:32:34;;;;;;;8.03;6.50;;;-0.20;99.90;;;;;;5107118;28;20221;-76
2023/04/07 05:35:01;;;;;;;12.67;9.00;;;-0.10;99.90;;;;;;5110245;28;20463;-76
2023/04/07 05:37:28;;;;;;;19.70;10.90;;;0.00;99.90;;;;;;5119792;27;20489;-75
2023/04/07 05:39:54;;;;;;;7.63;6.07;;;0.20;99.90;;;;;;5112241;28;20465;-78
2023/04/07 05:42:21;;;;;;;8.40;5.00;;;0.30;99.90;;;;;;5106305;28;20903;-75
2023/04/07 05:44:48;;;;;;;6.40;5.50;;;0.50;99.90;;;;;;5100324;28;20463;-76
2023/04/07 05:47:15;;;;;;;6.60;5.83;;;0.60;99.90;;;;;;5100608;28;20440;-78
2023/04/07 05:49:46;;;;;;;28.97;16.53;;;0.80;99.90;;;;;;5104815;27;20939;-75
2023/04/07 05:52:13;;;;;;;38.57;18.73;;;0.90;99.90;;;;;;5095350;28;20996;-75
2023/04/07 05:54:40;;;;;;;36.87;17.60;;;1.00;99.90;;;;;;5107065;28;20798;-76
2023/04/07 05:57:07;;;;;;;45.40;18.33;;;1.10;99.90;;;;;;5103814;28;20554;-73
2023/04/07 05:59:35;;;;;;;12.10;7.53;;;1.20;99.90;;;;;;5109347;28;20470;-74
2023/04/07 06:02:03;;;;;;;7.87;5.17;;;1.20;99.90;;;;;;5101363;28;20467;-74
2023/04/07 06:04:30;;;;;;;10.77;8.27;;;1.40;99.90;;;;;;5107448;28;20450;-82
2023/04/07 06:06:58;;;;;;;6.50;5.87;;;1.60;99.90;;;;;;5106058;28;20455;-82
2023/04/07 06:09:25;;;;;;;8.30;5.47;;;1.70;99.90;;;;;;5108224;28;20527;-75
2023/04/07 06:11:52;;;;;;;8.67;6.13;;;1.90;99.90;;;;;;5098132;28;20499;-75
2023/04/07 06:14:19;;;;;;;4.97;4.57;;;2.10;99.90;;;;;;5102992;28;20504;-78
2023/04/07 06:16:46;;;;;;;6.80;5.73;;;2.20;99.90;;;;;;5106449;28;20519;-77
2023/04/07 06:19:13;;;;;;;19.50;12.73;;;2.30;99.90;;;;;;5108066;28;21222;-78
2023/04/07 06:21:40;;;;;;;43.33;29.23;;;2.40;99.90;;;;;;5104054;28;20910;-75
2023/04/07 06:24:09;;;;;;;46.13;28.20;;;2.50;99.90;;;;;;5101115;28;20935;-75
2023/04/07 06:26:36;;;;;;;28.47;19.00;;;2.80;99.90;;;;;;5102172;28;20470;-75
2023/04/07 06:29:03;;;;;;;12.07;10.53;;;2.90;99.90;;;;;;5108355;28;20974;-75
2023/04/07 06:31:30;;;;;;;19.87;15.70;;;3.00;99.90;;;;;;5102848;28;20530;-75
2023/04/07 06:33:57;;;;;;;195.60;113.07;;;3.20;99.90;;;;;;5107784;28;20516;-75
2023/04/07 06:36:24;;;;;;;66.50;39.53;;;3.20;99.90;;;;;;5106040;28;20967;-75
2023/04/07 06:38:51;;;;;;;63.80;39.70;;;3.20;99.90;;;;;;5103341;28;20870;-76
2023/04/07 06:41:19;;;;;;;34.77;25.27;;;3.10;99.90;;;;;;5103074;28;20511;-75
2023/04/07 06:43:50;;;;;;;102.73;64.47;;;3.10;99.90;;;;;;5107166;28;20534;-75
2023/04/07 06:46:17;;;;;;;19.07;15.60;;;3.10;99.90;;;;;;5101386;28;21117;-78
2023/04/07 06:48:44;;;;;;;19.70;16.40;;;3.20;99.90;;;;;;5096949;28;20467;-78
2023/04/07 06:51:11;;;;;;;17.60;13.10;;;3.30;99.90;;;;;;5097255;28;20464;-78
2023/04/07 06:53:38;;;;;;;15.30;11.03;;;3.30;99.90;;;;;;5106614;27;20485;-78
2023/04/07 06:56:05;;;;;;;8.40;5.90;;;3.50;99.90;;;;;;5107906;28;20519;-76
2023/04/07 06:58:34;;;;;;;12.50;7.90;;;3.60;99.90;;;;;;5104375;28;20504;-76
2023/04/07 07:01:01;;;;;;;5.50;5.00;;;3.70;99.90;;;;;;5103193;28;20896;-78
2023/04/07 07:03:30;;;;;;;6.30;5.70;;;3.70;99.90;;;;;;5098275;28;20511;-75
2023/04/07 07:05:57;;;;;;;8.47;5.70;;;3.80;99.90;;;;;;5104542;28;20467;-76
2023/04/07 07:08:25;;;;;;;7.83;6.67;;;4.00;99.90;;;;;;5104993;28;21110;-78
2023/04/07 07:10:52;;;;;;;9.90;7.40;;;4.10;99.90;;;;;;5102024;28;20462;-77
2023/04/07 07:13:22;;;;;;;6.03;5.53;;;4.10;99.90;;;;;;5099722;27;20844;-76
2023/04/07 07:15:50;;;;;;;5.97;5.37;;;4.10;99.90;;;;;;5097829;28;20497;-76
2023/04/07 07:18:18;;;;;;;7.33;4.97;;;4.30;99.90;;;;;;5105065;28;20473;-78
2023/04/07 07:20:45;;;;;;;7.17;5.17;;;4.30;99.90;;;;;;5103597;28;20444;-76
2023/04/07 07:23:12;;;;;;;5.03;4.53;;;4.30;99.90;;;;;;5104966;27;20543;-76
2023/04/07 07:25:39;;;;;;;5.13;4.63;;;4.20;99.90;;;;;;5106669;27;20447;-75
2023/04/07 07:28:06;;;;;;;5.57;5.07;;;4.40;99.90;;;;;;5100258;28;20490;-78
2023/04/07 07:30:33;;;;;;;6.27;5.67;;;4.30;99.90;;;;;;5111396;28;20466;-75
2023/04/07 07:33:01;;;;;;;6.40;5.57;;;4.40;99.90;;;;;;5108339;28;20482;-77
2023/04/07 07:35:31;;;;;;;8.20;6.00;;;4.40;99.90;;;;;;5109933;28;20519;-75
2023/04/07 07:37:59;;;;;;;9.10;6.90;;;4.60;99.90;;;;;;5105911;27;20481;-76
2023/04/07 07:40:26;;;;;;;7.00;5.33;;;4.80;99.90;;;;;;5096749;28;21012;-80
2023/04/07 07:42:53;;;;;;;6.13;5.60;;;5.00;99.90;;;;;;5099410;28;22258;-75
2023/04/07 07:45:20;;;;;;;6.57;5.93;;;5.10;99.90;;;;;;5104215;28;20454;-77
2023/04/07 07:47:47;;;;;;;7.93;5.27;;;5.40;99.70;;;;;;5100323;28;20459;-76
2023/04/07 07:50:15;;;;;;;6.03;5.43;;;5.50;99.30;;;;;;5103483;28;20504;-77
2023/04/07 07:52:42;;;;;;;9.20;5.40;;;5.60;99.40;;;;;;5104260;28;20522;-78
2023/04/07 07:55:09;;;;;;;7.67;6.60;;;5.60;99.10;;;;;;5105661;28;20462;-77
2023/04/07 07:57:36;;;;;;;9.33;5.70;;;5.70;99.50;;;;;;5097926;28;21011;-79
2023/04/07 08:00:04;;;;;;;13.00;9.90;;;5.80;98.90;;;;;;5097262;28;20472;-77
2023/04/07 08:02:32;;;;;;;9.07;8.17;;;5.80;99.20;;;;;;5100738;28;20494;-76
2023/04/07 08:04:59;;;;;;;13.10;10.67;;;6.00;99.10;;;;;;5095505;28;20447;-76
2023/04/07 08:07:28;;;;;;;26.70;16.90;;;5.90;97.90;;;;;;5095459;28;20460;-78
2023/04/07 08:09:55;;;;;;;41.50;24.10;;;6.00;97.40;;;;;;5106995;28;20446;-77
2023/04/07 08:12:22;;;;;;;18.10;11.67;;;6.10;97.90;;;;;;5103616;28;20494;-76
2023/04/07 08:14:49;;;;;;;10.00;8.70;;;6.10;98.80;;;;;;5102883;27;20443;-77
2023/04/07 08:17:16;;;;;;;10.03;8.03;;;6.20;97.80;;;;;;5104068;28;20447;-78
2023/04/07 08:19:43;;;;;;;13.87;8.90;;;6.20;96.10;;;;;;5106541;28;20450;-78
2023/04/07 08:22:10;;;;;;;26.63;15.47;;;6.20;96.90;;;;;;5099467;28;20455;-77
2023/04/07 08:24:39;;;;;;;31.13;16.43;;;6.40;97.40;;;;;;5103038;28;20470;-76
2023/04/07 08:27:06;;;;;;;19.03;12.53;;;6.60;96.70;;;;;;5101700;28;20493;-77
2023/04/07 08:29:33;;;;;;;11.20;9.53;;;6.80;97.00;;;;;;5106075;28;20487;-77
2023/04/07 08:32:00;;;;;;;11.00;8.70;;;6.80;97.00;;;;;;5095323;28;20523;-79
2023/04/07 08:34:27;;;;;;;9.77;7.30;;;7.00;97.10;;;;;;5105673;28;20543;-76
2023/04/07 08:36:54;;;;;;;15.23;8.30;;;7.10;96.10;;;;;;5102565;28;20467;-77
2023/04/07 08:39:21;;;;;;;10.20;7.57;;;7.20;98.00;;;;;;5096954;28;20458;-78
2023/04/07 08:41:51;;;;;;;6.40;5.27;;;7.20;96.10;;;;;;5101493;28;20858;-77
2023/04/07 08:44:21;;;;;;;6.80;5.77;;;7.20;95.00;;;;;;5104482;28;20470;-78
2023/04/07 08:46:49;;;;;;;8.10;5.40;;;7.10;92.20;;;;;;5103820;28;20443;-77
2023/04/07 08:49:17;;;;;;;9.17;7.60;;;7.50;94.10;;;;;;5099780;28;20991;-79
2023/04/07 08:51:46;;;;;;;10.63;5.90;;;7.80;94.50;;;;;;5103777;28;20476;-78
2023/04/07 08:54:14;;;;;;;7.90;6.40;;;8.20;93.00;;;;;;5104953;28;20514;-77
2023/04/07 08:56:43;;;;;;;10.00;6.87;;;8.30;92.80;;;;;;5101653;28;20450;-77
2023/04/07 08:59:13;;;;;;;10.83;8.20;;;8.40;90.30;;;;;;5104677;28;20463;-78
2023/04/07 09:01:40;;;;;;;7.93;7.07;;;8.40;90.10;;;;;;5101866;28;20462;-77
2023/04/07 09:04:08;;;;;;;6.27;5.77;;;8.70;93.50;;;;;;5103476;28;20522;-78
2023/04/07 09:06:36;;;;;;;6.73;5.50;;;9.10;91.90;;;;;;5098200;28;20516;-77
2023/04/07 09:09:05;;;;;;;8.57;6.83;;;9.10;90.90;;;;;;5106647;28;20451;-78
2023/04/07 09:11:35;;;;;;;9.20;6.93;;;9.30;91.00;;;;;;5105388;28;20473;-81
2023/04/07 09:14:02;;;;;;;8.30;7.40;;;9.40;86.50;;;;;;5110314;28;20482;-78
2023/04/07 09:16:31;;;;;;;11.97;7.13;;;9.40;88.20;;;;;;5108081;28;20815;-78
2023/04/07 09:18:58;;;;;;;7.17;6.47;;;9.70;88.70;;;;;;5104982;28;20459;-79
2023/04/07 09:21:25;;;;;;;7.90;6.33;;;10.10;87.60;;;;;;5109416;28;20489;-78
2023/04/07 09:23:53;;;;;;;10.97;8.00;;;10.10;84.70;;;;;;5107186;28;20534;-79
2023/04/07 09:26:23;;;;;;;10.03;7.30;;;9.90;86.50;;;;;;5111842;28;20907;-77
2023/04/07 09:28:52;;;;;;;8.07;7.17;;;10.10;83.60;;;;;;5112800;28;20911;-77
2023/04/07 09:31:20;;;;;;;9.30;6.40;;;10.10;81.90;;;;;;5102886;28;20466;-77
2023/04/07 09:33:49;;;;;;;8.10;7.17;;;10.20;82.60;;;;;;5107077;28;20489;-77
2023/04/07 09:36:16;;;;;;;10.10;8.87;;;10.40;86.40;;;;;;5102157;28;20470;-79
2023/04/07 09:38:45;;;;;;;8.70;7.47;;;10.60;85.60;;;;;;5100105;28;20466;-77
2023/04/07 09:41:14;;;;;;;10.70;7.23;;;10.50;82.80;;;;;;5110522;28;20450;-76
2023/04/07 09:43:43;;;;;;;9.20;7.70;;;10.60;83.40;;;;;;5104570;28;20466;-76
2023/04/07 09:46:12;;;;;;;10.23;7.70;;;10.60;81.40;;;;;;5108669;28;20438;-77
2023/04/07 09:48:40;;;;;;;10.27;8.60;;;11.00;85.70;;;;;;5107675;28;20463;-78
2023/04/07 09:51:11;;;;;;;9.27;8.07;;;10.90;80.90;;;;;;5103728;28;20452;-77
2023/04/07 09:53:47;;;;;;;10.00;8.40;;;11.20;84.00;;;;;;5108759;28;20587;-76
2023/04/07 09:56:16;;;;;;;9.53;8.53;;;11.50;81.30;;;;;;5104600;28;20470;-76
2023/04/07 09:58:45;;;;;;;10.07;8.70;;;11.70;77.50;;;;;;5109011;28;20456;-78
2023/04/07 10:01:12;;;;;;;9.00;7.10;;;11.90;73.80;;;;;;5106505;28;20450;-77
2023/04/07 10:03:40;;;;;;;12.00;9.13;;;12.00;75.80;;;;;;5106563;28;20527;-78
2023/04/07 10:06:09;;;;;;;9.50;7.30;;;12.30;83.20;;;;;;5094329;28;20467;-78
2023/04/07 10:08:40;;;;;;;9.33;7.50;;;12.50;78.00;;;;;;5113027;27;20553;-78
2023/04/07 10:11:07;;;;;;;9.27;6.90;;;12.30;73.20;;;;;;5100087;28;20505;-78
2023/04/07 10:13:35;;;;;;;8.80;7.90;;;12.40;68.80;;;;;;5092294;28;20827;-77
2023/04/07 10:16:04;;;;;;;9.43;8.07;;;12.60;67.00;;;;;;5107019;28;20545;-78
2023/04/07 10:18:33;;;;;;;10.90;7.10;;;12.90;66.90;;;;;;5109509;28;20485;-78
2023/04/07 10:21:02;;;;;;;11.20;7.40;;;13.10;67.60;;;;;;5101456;28;20531;-77
2023/04/07 10:23:43;;;;;;;9.73;6.77;;;12.70;55.20;;;;;;5098661;28;20463;-79
2023/04/07 10:26:12;;;;;;;9.23;6.80;;;12.40;51.10;;;;;;5107368;28;20461;-78
2023/04/07 10:28:43;;;;;;;8.77;7.70;;;12.50;56.40;;;;;;5107973;28;21037;-78
2023/04/07 10:31:11;;;;;;;9.97;7.47;;;12.80;56.20;;;;;;5103011;28;20454;-78
2023/04/07 10:33:49;;;;;;;10.70;7.70;;;13.20;55.60;;;;;;5107405;28;20478;-79
2023/04/07 10:36:17;;;;;;;8.77;6.60;;;13.40;58.20;;;;;;5095421;28;20463;-78
2023/04/07 10:39:22;;;;;;;6.10;5.00;;;13.50;49.40;;;;;;5095721;28;20501;-78
2023/04/07 10:41:50;;;;;;;8.57;6.57;;;13.10;43.70;;;;;;5102259;28;20852;-79
2023/04/07 10:44:45;;;;;;;9.83;6.73;;;12.60;45.10;;;;;;5102475;28;20469;-78
2023/04/07 10:47:13;;;;;;;8.17;7.33;;;12.20;42.50;;;;;;5086511;28;20443;-79
2023/04/07 10:50:17;;;;;;;9.33;7.00;;;11.90;44.10;;;;;;5103655;28;21082;-78
2023/04/07 10:52:45;;;;;;;9.93;5.83;;;12.30;47.20;;;;;;5097628;28;20442;-78
2023/04/07 10:55:38;;;;;;;6.03;4.50;;;12.50;46.80;;;;;;5107112;28;20565;-78
2023/04/07 10:58:22;;;;;;;8.90;5.50;;;12.40;47.90;;;;;;5086216;28;20451;-78
2023/04/07 11:01:21;;;;;;;6.87;6.00;;;12.50;41.30;;;;;;5102637;28;20454;-78
2023/04/07 11:03:59;;;;;;;7.80;5.47;;;12.60;39.40;;;;;;5108764;27;20507;-78
2023/04/07 11:06:27;;;;;;;9.67;6.80;;;12.60;39.10;;;;;;5100224;28;20482;-77
2023/04/07 11:08:54;;;;;;;6.00;4.93;;;12.60;42.30;;;;;;5109408;28;20453;-78
2023/04/07 11:11:41;;;;;;;7.27;5.93;;;12.20;36.90;;;;;;5107459;28;20466;-78
2023/04/07 11:14:08;;;;;;;7.47;5.73;;;12.20;39.20;;;;;;5112228;28;20517;-78
2023/04/07 11:16:44;;;;;;;6.27;5.67;;;12.30;39.90;;;;;;5120146;28;20459;-78
2023/04/07 11:19:11;;;;;;;8.10;6.00;;;12.40;41.70;;;;;;5116557;28;20490;-78
2023/04/07 11:21:38;;;;;;;5.40;4.90;;;12.30;41.10;;;;;;5102078;28;20451;-78
2023/04/07 11:24:06;;;;;;;6.53;5.70;;;12.40;43.60;;;;;;5100264;28;20466;-77
2023/04/07 11:26:39;;;;;;;7.67;6.20;;;12.40;39.30;;;;;;5097221;28;20452;-79
2023/04/07 11:29:06;;;;;;;6.80;5.00;;;12.40;38.50;;;;;;5103554;28;20523;-80
2023/04/07 11:31:34;;;;;;;9.50;7.30;;;12.50;37.30;;;;;;5101675;28;20453;-81
2023/04/07 11:34:03;;;;;;;8.70;6.63;;;12.50;39.10;;;;;;5100413;28;20559;-75
2023/04/07 11:36:32;;;;;;;7.67;6.30;;;12.40;38.70;;;;;;5106355;28;20451;-77
2023/04/07 11:39:00;;;;;;;7.10;6.07;;;12.50;37.80;;;;;;5099689;28;20546;-76
2023/04/07 11:41:29;;;;;;;7.23;5.60;;;12.50;36.80;;;;;;5108246;28;20913;-75
2023/04/07 11:44:08;;;;;;;7.83;5.30;;;12.90;41.10;;;;;;5106291;28;20470;-77
2023/04/07 11:46:36;;;;;;;7.43;6.20;;;13.30;37.90;;;;;;5103612;28;20450;-79
2023/04/07 11:49:10;;;;;;;8.13;5.90;;;13.30;37.30;;;;;;5104877;28;20549;-81
2023/04/07 11:51:37;;;;;;;8.20;6.77;;;13.40;38.60;;;;;;5106859;28;20445;-80
2023/04/07 11:54:05;;;;;;;8.53;6.27;;;13.10;39.30;;;;;;5104218;28;20470;-78
2023/04/07 11:56:42;;;;;;;8.33;6.63;;;12.90;36.60;;;;;;5100419;28;20474;-78
2023/04/07 11:59:19;;;;;;;9.20;6.77;;;12.80;36.10;;;;;;5104103;28;20467;-78
2023/04/07 12:01:47;;;;;;;9.33;6.33;;;12.80;38.60;;;;;;5099446;28;20459;-77
2023/04/07 12:04:14;;;;;;;7.43;6.50;;;13.10;39.90;;;;;;5102332;28;20503;-76
2023/04/07 12:06:41;;;;;;;8.23;6.37;;;12.60;36.40;;;;;;5100820;28;20542;-78
2023/04/07 12:09:09;;;;;;;7.53;5.73;;;12.60;38.70;;;;;;5097941;28;20475;-77
2023/04/07 12:11:37;;;;;;;8.57;6.30;;;12.80;39.50;;;;;;5105306;28;20535;-78
2023/04/07 12:14:05;;;;;;;7.23;6.23;;;12.80;38.40;;;;;;5107196;28;20551;-77
2023/04/07 12:16:38;;;;;;;7.40;6.70;;;13.10;39.70;;;;;;5104580;28;20450;-77
2023/04/07 12:19:05;;;;;;;9.63;7.10;;;13.00;38.30;;;;;;5099091;28;20494;-76
2023/04/07 12:21:32;;;;;;;8.63;5.53;;;12.80;38.00;;;;;;5102098;28;20451;-77
2023/04/07 12:23:59;;;;;;;8.27;5.47;;;12.70;35.90;;;;;;5102582;28;20471;-76
2023/04/07 12:26:26;;;;;;;7.10;6.30;;;12.80;35.90;;;;;;5093070;28;20446;-76
2023/04/07 12:28:53;;;;;;;12.70;6.43;;;13.10;38.20;;;;;;5105492;28;20876;-75
2023/04/07 12:31:20;;;;;;;10.00;7.87;;;13.20;35.60;;;;;;5099945;28;20447;-77
2023/04/07 12:33:49;;;;;;;10.00;7.57;;;13.40;35.30;;;;;;5101569;28;21143;-76
2023/04/07 12:36:16;;;;;;;7.83;6.10;;;13.80;36.90;;;;;;5102128;28;20491;-78
2023/04/07 12:38:43;;;;;;;7.57;6.70;;;14.10;37.40;;;;;;5097341;28;20470;-78
2023/04/07 12:41:10;;;;;;;8.87;6.80;;;14.20;38.20;;;;;;5099924;28;20462;-78
2023/04/07 12:43:37;;;;;;;9.03;6.43;;;14.30;39.40;;;;;;5104617;28;20466;-77
2023/04/07 12:46:04;;;;;;;10.83;7.67;;;14.30;34.70;;;;;;5097644;28;20511;-77
2023/04/07 12:48:31;;;;;;;10.00;7.00;;;14.50;37.60;;;;;;5101842;28;21051;-77
2023/04/07 12:51:01;;;;;;;9.40;7.17;;;14.70;39.80;;;;;;5104451;28;20458;-79
2023/04/07 12:53:28;;;;;;;10.37;7.23;;;14.70;38.40;;;;;;5102540;28;20487;-76
2023/04/07 12:55:55;;;;;;;6.90;6.20;;;14.40;39.60;;;;;;5089613;28;20455;-79